createdAt,value
2018-11-10T23:10:12.827Z,990.89
2018-11-10T23:11:12.585Z,990.83
2018-11-10T23:12:12.482Z,990.87
2018-11-10T23:13:12.547Z,990.82
2018-11-10T23:14:12.461Z,990.81
2018-11-10T23:15:12.450Z,990.85
2018-11-10T23:16:12.446Z,990.78
2018-11-10T23:17:12.505Z,990.74
2018-11-10T23:18:12.448Z,990.79
2018-11-10T23:19:12.418Z,990.81
2018-11-10T23:20:12.412Z,990.87
2018-11-10T23:21:12.438Z,990.90
2018-11-10T23:22:12.383Z,990.97
2018-11-10T23:23:12.444Z,990.89
2018-11-10T23:24:12.413Z,990.93
2018-11-10T23:25:12.353Z,990.85
2018-11-10T23:26:12.336Z,990.77
2018-11-10T23:27:12.383Z,990.82
2018-11-10T23:28:12.369Z,990.82
2018-11-10T23:29:12.322Z,990.80
2018-11-10T23:30:12.425Z,990.77
2018-11-10T23:31:12.289Z,990.78
2018-11-10T23:32:12.278Z,990.81
2018-11-10T23:33:12.498Z,990.81
2018-11-10T23:34:12.337Z,990.84
2018-11-10T23:35:12.249Z,990.87
2018-11-10T23:36:12.235Z,990.91
2018-11-10T23:37:12.259Z,990.85
2018-11-10T23:38:12.286Z,990.84
2018-11-10T23:39:12.203Z,990.86
2018-11-10T23:40:12.197Z,990.84
2018-11-10T23:41:12.275Z,990.82
2018-11-10T23:42:12.223Z,990.89
2018-11-10T23:43:12.224Z,990.89
2018-11-10T23:44:12.379Z,990.89
2018-11-10T23:45:12.157Z,990.85
2018-11-10T23:46:12.134Z,990.86
2018-11-10T23:47:12.123Z,990.87
2018-11-10T23:48:12.160Z,990.84
2018-11-10T23:49:12.097Z,990.85
2018-11-10T23:50:12.130Z,990.90
2018-11-10T23:51:12.396Z,990.89
2018-11-10T23:52:12.072Z,990.93
2018-11-10T23:53:12.095Z,990.91
2018-11-10T23:54:12.077Z,990.87
2018-11-10T23:55:12.218Z,990.85
2018-11-10T23:56:12.018Z,990.79
2018-11-10T23:57:12.011Z,990.76
2018-11-10T23:58:12.094Z,990.72
2018-11-10T23:59:11.996Z,990.76
